ADDS TAF Board (Experimental) INFO Settings
IDs: Format: Expanded Condensed

KTPA - Tampa Intl Arpt, FL, US

Issued at 1120 UTC 29 Aug 2015
Updated at: 1235 UTC 29 Aug 2015
Time1204Z 29/13Z 29/14Z 29/15Z 29/16Z 29/17Z 29/18Z 29/19Z 29/20Z 29/21Z 29/22Z 29/23Z 30/00Z 30/01Z
Type OBS PRVL PRVL PRVL PRVL PRVL PRVL PRVL PRVL PRVL PRVL PRVL PRVL PRVL
VIS 10 >6 >6 >6 >6 >6 >6 >6 >6 >6 >6 >6 >6 >6
CIG 260 250 250 250 250 250 250 250 130 130 130 130 200 200
Cover BKN BKN BKN BKN BKN BKN BKN BKN BKN BKN BKN BKN BKN BKN
FltCat VFR VFR VFR VFR VFR VFR VFR VFR VFR VFR VFR VFR VFR VFR
WX -- -- -- -- -- VCTS VCTS VCTS VCTS VCTS VCTS VCTS -- --
WDir 70 80 130 130 130 220 220 220 290 290 290 290 60 60
WSpd 4 4 5 5 5 6 6 6 7 7 7 7 4 4
WGst -- -- -- -- -- -- -- -- -- -- -- -- -- --
R01/19
XWnd -4 -4 -4 -4 -4 4 4 4 7 7 7 7 -3 -3
HWnd 1 1 -3 -3 -3 -5 -5 -5 2 2 2 2 2 2
R10/28
XWnd 1 1 -3 -3 -3 -5 -5 -5 2 2 2 2 2 2
HWnd 4 4 4 4 4 -4 -4 -4 -7 -7 -7 -7 3 3

NOTE: TEMPO conditions in [brackets]. Keep in mind TEMPO conditions might be better (lower impact) than prevailing conditions.

Raw TAF
KTPA 291120Z 2912/3012 08004KT P6SM SCT008 BKN250
  FM291400 13005KT P6SM SCT025 BKN250
  FM291700 22006KT P6SM VCTS SCT035CB SCT130 BKN250
  FM292000 29007KT P6SM VCTS SCT040CB BKN130
  FM300000 06004KT P6SM SCT040 SCT130 BKN200


Raw METAR
KTPA 291204Z 07004KT 10SM FEW002 BKN260 24/23 A3008 RMK AO2 T02440228
KTPA 291153Z 06003KT 10SM FEW002 OVC260 24/23 A3008 RMK AO2 SLP184 T02390228 10244 20233 53012
KTPA 291145Z VRB03KT 10SM FEW002 OVC260 24/23 A3007 RMK AO2 T02440228
KTPA 291053Z 04003KT 10SM BKN230 24/22 A3006 RMK AO2 SLP178 T02390222
KTPA 290953Z 04003KT 10SM SCT210 24/22 A3004 RMK AO2 SLP173 T02390222

METAR Board
Radar Display
Forecast Discussion

TAF Board Legend

Potential Impact
Threat None Slight Moderate High
Visibility (sm) ≥5.1 5.1>X≥3 3>X≥1 <1
Ceiling (100 ft) ≥30.1 30.1>X≥10 10>X≥5 <5
Wind Speed (kt) <10 10≤X<20 20≤X<30 ≥30
Wind Gust (kt) <15 15≤X<25 25≤X<35 ≥35
Weather No Wx Reported VCTS,-TS,-FZRA,SN TS,FZRA +TS,+FZRA,+SN